Terminal Aerodrome Forecast
Issued by NWS

Home | Current Version | Previous Version | Text Only | Print | Product List | Glossary On
Versions: 1 2 3 4 5 6 7 8 9 10 11 12 13 14 15 16 17 18 19 20 21 22 23 24 25 26 27
000
FTPA31 PHFO 031700
TAFITO
TAF
PHTO 031731Z 0318/0418 24005KT P6SM FEW025 BKN035 OVC050
     FM032000 08010KT P6SM SCT030 BKN050
     FM040500 26005KT P6SM SCT025 BKN050=

USA.gov is the U.S. government's official web portal to all federal, state and local government web resources and services.